createdAt,value
2023-01-22T00:01:17.779Z,100673.69
2023-01-22T00:03:46.956Z,100696.53
2023-01-22T00:06:15.792Z,100702.50
2023-01-22T00:08:44.156Z,100684.56
2023-01-22T00:11:12.911Z,100697.06
2023-01-22T00:13:42.366Z,100693.28
2023-01-22T00:16:13.489Z,100703.88
2023-01-22T00:18:42.013Z,100706.09
2023-01-22T00:21:10.055Z,100699.41
2023-01-22T00:23:38.767Z,100680.38
2023-01-22T00:26:11.031Z,100694.69
2023-01-22T00:28:39.093Z,100700.81
2023-01-22T00:31:09.495Z,100711.13
2023-01-22T00:33:38.945Z,100720.50
2023-01-22T00:36:08.192Z,100708.72
2023-01-22T00:38:36.215Z,100723.00
2023-01-22T00:41:05.860Z,100728.84
2023-01-22T00:43:35.480Z,100736.28
2023-01-22T00:46:03.465Z,100750.41
2023-01-22T00:48:33.165Z,100741.00
2023-01-22T00:51:01.106Z,100753.00
2023-01-22T00:53:29.065Z,100766.00
2023-01-22T00:55:58.749Z,100776.53
2023-01-22T00:58:27.011Z,100779.28
2023-01-22T01:00:54.982Z,100790.72
2023-01-22T01:03:31.753Z,100795.84
2023-01-22T01:06:03.176Z,100801.03
2023-01-22T01:08:33.659Z,100803.81
2023-01-22T01:11:04.015Z,100808.25
2023-01-22T01:13:34.154Z,100814.13
2023-01-22T01:16:04.144Z,100811.75
2023-01-22T01:18:32.904Z,100812.66
2023-01-22T01:21:02.231Z,100815.56
2023-01-22T01:23:30.416Z,100822.53
2023-01-22T01:25:58.601Z,100824.28
2023-01-22T01:28:28.820Z,100826.03
2023-01-22T01:30:56.948Z,100820.84
2023-01-22T01:33:24.934Z,100818.50
2023-01-22T01:36:00.255Z,100834.91
2023-01-22T01:38:29.615Z,100849.34
2023-01-22T01:40:57.575Z,100847.22
2023-01-22T01:43:25.570Z,100838.03
2023-01-22T01:45:54.725Z,100843.06
2023-01-22T01:48:29.572Z,100848.19
2023-01-22T01:51:02.580Z,100851.34
2023-01-22T01:53:32.812Z,100853.03
2023-01-22T01:56:03.168Z,100850.97
2023-01-22T01:58:35.149Z,100846.91
2023-01-22T02:01:09.226Z,100854.09
2023-01-22T02:03:36.975Z,100848.47
2023-01-22T02:06:05.260Z,100842.03
2023-01-22T02:08:34.560Z,100858.22
2023-01-22T02:11:02.510Z,100845.59
2023-01-22T02:13:33.633Z,100852.88
2023-01-22T02:16:01.618Z,100851.66
2023-01-22T02:18:29.577Z,100850.63
2023-01-22T02:21:00.904Z,100854.31
2023-01-22T02:23:29.666Z,100849.47
2023-01-22T02:25:58.864Z,100826.78
2023-01-22T02:28:26.833Z,100850.81
2023-01-22T02:30:54.752Z,100852.41
2023-01-22T02:33:22.689Z,100851.81
2023-01-22T02:35:50.597Z,100845.97
2023-01-22T02:38:19.903Z,100847.38
2023-01-22T02:40:50.149Z,100839.56
2023-01-22T02:43:18.095Z,100855.19
2023-01-22T02:45:46.069Z,100850.56
2023-01-22T02:48:14.209Z,100846.59
2023-01-22T02:50:42.116Z,100842.28
2023-01-22T02:53:10.019Z,100843.47
2023-01-22T02:55:40.357Z,100839.31
2023-01-22T02:58:08.248Z,100834.75
2023-01-22T03:00:36.155Z,100835.50
2023-01-22T03:03:07.832Z,100835.25
2023-01-22T03:05:35.836Z,100850.19
2023-01-22T03:08:03.748Z,100850.34
2023-01-22T03:10:31.680Z,100852.34
2023-01-22T03:13:18.275Z,100846.69
2023-01-22T03:16:03.482Z,100841.56
2023-01-22T03:18:50.574Z,100844.38
2023-01-22T03:21:18.866Z,100836.66
2023-01-22T03:23:48.719Z,100824.44
2023-01-22T03:26:17.101Z,100828.88
2023-01-22T03:28:47.069Z,100828.66
2023-01-22T03:31:16.277Z,100818.69
2023-01-22T03:33:45.047Z,100825.97
2023-01-22T03:36:15.327Z,100817.16
2023-01-22T03:38:45.134Z,100815.56
2023-01-22T03:41:16.094Z,100818.72
2023-01-22T03:43:44.082Z,100810.34
2023-01-22T03:46:15.019Z,100816.78
2023-01-22T03:48:43.478Z,100806.84
2023-01-22T03:51:14.260Z,100817.56
2023-01-22T03:53:43.443Z,100818.28
2023-01-22T03:56:13.679Z,100816.13
2023-01-22T03:58:42.184Z,100811.69
2023-01-22T04:01:12.632Z,100815.59
2023-01-22T04:03:42.161Z,100815.34
2023-01-22T04:06:11.724Z,100820.25
2023-01-22T04:08:41.132Z,100827.97
2023-01-22T04:11:09.549Z,100826.28
2023-01-22T04:13:38.969Z,100828.50
2023-01-22T04:16:08.078Z,100829.41
2023-01-22T04:18:36.129Z,100830.59
2023-01-22T04:21:05.868Z,100831.31
2023-01-22T04:23:34.226Z,100835.34
2023-01-22T04:26:02.121Z,100840.53
2023-01-22T04:28:30.062Z,100846.66
2023-01-22T04:30:58.197Z,100835.28
2023-01-22T04:33:26.317Z,100843.97
2023-01-22T04:35:56.426Z,100834.94
2023-01-22T04:38:25.806Z,100847.50
2023-01-22T04:40:53.777Z,100842.00
2023-01-22T04:43:21.703Z,100851.19
2023-01-22T04:45:51.363Z,100844.66
2023-01-22T04:48:19.334Z,100857.72
2023-01-22T04:50:47.354Z,100862.22
2023-01-22T04:53:15.367Z,100859.19
2023-01-22T04:55:44.766Z,100866.00
2023-01-22T04:58:12.672Z,100868.19
2023-01-22T05:00:40.561Z,100877.50
2023-01-22T05:03:08.500Z,100873.44
2023-01-22T05:05:36.376Z,100889.13
2023-01-22T05:08:04.412Z,100880.34
2023-01-22T05:10:32.326Z,100882.00
2023-01-22T05:13:05.907Z,100891.97
2023-01-22T05:15:34.507Z,100891.63
2023-01-22T05:18:02.475Z,100895.13
2023-01-22T05:20:30.438Z,100908.00
2023-01-22T05:22:58.327Z,100913.19
2023-01-22T05:25:26.220Z,100909.31
2023-01-22T05:27:54.137Z,100909.00
2023-01-22T05:30:23.580Z,100910.16
2023-01-22T05:32:55.637Z,100912.41
2023-01-22T05:35:23.578Z,100918.00
2023-01-22T05:37:51.467Z,100916.78
2023-01-22T05:40:19.746Z,100917.19
2023-01-22T05:42:47.846Z,100924.03
2023-01-22T05:45:15.769Z,100926.53
2023-01-22T05:47:45.050Z,100861.06
2023-01-22T05:50:12.945Z,100927.91
2023-01-22T05:52:40.842Z,100936.56
2023-01-22T05:55:09.431Z,100935.78
2023-01-22T05:57:37.354Z,100944.47
2023-01-22T06:00:08.543Z,100945.81
2023-01-22T06:02:36.452Z,100942.44
2023-01-22T06:05:06.552Z,100940.56
2023-01-22T06:07:34.575Z,100951.84
2023-01-22T06:10:02.527Z,100955.28
2023-01-22T06:12:30.432Z,100957.78
2023-01-22T06:14:58.287Z,100959.72
2023-01-22T06:17:26.247Z,100972.63
2023-01-22T06:19:54.191Z,100974.72
2023-01-22T06:22:23.502Z,100991.25
2023-01-22T06:24:51.936Z,100989.03
2023-01-22T06:27:20.381Z,100982.69
2023-01-22T06:29:48.266Z,100992.31
2023-01-22T06:32:16.148Z,100993.78
2023-01-22T06:34:44.141Z,100999.34
2023-01-22T06:37:12.077Z,100997.28
2023-01-22T06:39:41.678Z,101005.38
2023-01-22T06:42:09.596Z,101007.34
2023-01-22T06:44:37.481Z,101007.00
2023-01-22T06:47:05.415Z,100995.25
2023-01-22T06:49:33.302Z,101004.97
2023-01-22T06:52:01.231Z,101003.88
2023-01-22T06:54:29.130Z,101013.03
2023-01-22T06:56:58.402Z,101011.88
2023-01-22T06:59:26.311Z,101014.41
2023-01-22T07:01:54.288Z,101014.59
2023-01-22T07:04:22.218Z,101017.72
2023-01-22T07:06:50.144Z,101018.16
2023-01-22T07:09:18.022Z,101020.69
2023-01-22T07:11:45.975Z,101030.06
2023-01-22T07:14:15.280Z,101029.16
2023-01-22T07:16:43.180Z,101031.50
2023-01-22T07:19:11.094Z,101037.28
2023-01-22T07:21:39.013Z,101038.63
2023-01-22T07:24:07.796Z,101036.94
2023-01-22T07:26:36.190Z,101036.13
2023-01-22T07:29:04.246Z,101032.16
2023-01-22T07:31:33.539Z,101038.84
2023-01-22T07:34:01.436Z,101041.28
2023-01-22T07:36:29.309Z,101044.44
2023-01-22T07:38:57.355Z,101053.41
2023-01-22T07:41:26.499Z,101047.50
2023-01-22T07:43:56.224Z,101051.31
2023-01-22T07:46:24.385Z,101048.47
2023-01-22T07:48:53.679Z,101056.19
2023-01-22T07:51:21.737Z,101060.56
2023-01-22T07:53:49.653Z,101062.66
2023-01-22T07:56:19.110Z,101072.81
2023-01-22T07:58:50.189Z,101074.84
2023-01-22T08:01:18.185Z,101081.91
2023-01-22T08:03:46.778Z,101085.34
2023-01-22T08:06:20.731Z,101089.47
2023-01-22T08:08:48.687Z,101082.00
2023-01-22T08:11:16.735Z,101085.84
2023-01-22T08:13:44.667Z,101082.06
2023-01-22T08:16:12.617Z,101089.56
2023-01-22T08:18:40.550Z,101049.94
2023-01-22T08:21:08.492Z,101099.03
2023-01-22T08:23:37.753Z,101110.94
2023-01-22T08:26:06.160Z,101109.56
2023-01-22T08:28:34.155Z,101096.28
2023-01-22T08:31:03.345Z,101098.84
2023-01-22T08:33:33.805Z,101109.00
2023-01-22T08:36:01.734Z,101106.00
2023-01-22T08:38:29.611Z,101112.44
2023-01-22T08:40:58.939Z,101115.34
2023-01-22T08:43:26.854Z,101122.22
2023-01-22T08:45:54.927Z,101121.97
2023-01-22T08:48:22.874Z,101126.69
2023-01-22T08:50:50.810Z,101122.81
2023-01-22T08:53:18.706Z,101120.78
2023-01-22T08:55:50.392Z,101125.28
2023-01-22T08:58:21.057Z,101131.84
2023-01-22T09:00:49.390Z,101130.94
2023-01-22T09:03:17.315Z,101119.94
2023-01-22T09:05:45.228Z,101131.75
2023-01-22T09:08:13.211Z,101135.22
2023-01-22T09:10:41.367Z,101135.00
2023-01-22T09:13:09.310Z,101127.28
2023-01-22T09:15:39.425Z,101135.34
2023-01-22T09:18:07.486Z,101126.69
2023-01-22T09:20:35.408Z,101130.56
2023-01-22T09:23:03.312Z,101131.19
2023-01-22T09:25:31.667Z,101133.44
2023-01-22T09:28:00.389Z,101135.50
2023-01-22T09:30:30.339Z,101139.25
2023-01-22T09:33:00.091Z,101136.16
2023-01-22T09:35:28.580Z,101141.09
2023-01-22T09:37:56.686Z,101146.88
2023-01-22T09:40:27.841Z,101139.59
2023-01-22T09:43:06.551Z,101136.53
2023-01-22T09:45:38.701Z,101134.97
2023-01-22T09:48:14.565Z,101139.59
2023-01-22T09:50:42.784Z,101136.28
2023-01-22T09:53:16.517Z,101142.41
2023-01-22T09:55:47.660Z,101142.81
2023-01-22T09:58:18.495Z,101140.41
2023-01-22T10:00:52.469Z,101138.78
2023-01-22T10:03:31.177Z,101136.63
2023-01-22T10:06:03.421Z,101128.91
2023-01-22T10:08:34.773Z,101131.22
2023-01-22T10:11:02.907Z,101126.88
2023-01-22T10:13:33.716Z,101134.16
2023-01-22T10:16:02.227Z,101136.34
2023-01-22T10:18:36.202Z,101141.13
2023-01-22T10:21:06.486Z,101135.44
2023-01-22T10:23:35.781Z,101130.78
2023-01-22T10:26:15.083Z,101129.63
2023-01-22T10:28:46.307Z,101136.13
2023-01-22T10:31:26.266Z,101125.22
2023-01-22T10:33:59.734Z,101124.09
2023-01-22T10:36:28.816Z,101125.22
2023-01-22T10:39:13.455Z,101132.59
2023-01-22T10:41:42.050Z,101120.31
2023-01-22T10:44:18.642Z,101117.72
2023-01-22T10:46:49.223Z,101135.75
2023-01-22T10:49:20.559Z,101129.88
2023-01-22T10:51:53.932Z,101115.56
2023-01-22T10:54:25.846Z,101126.06
2023-01-22T10:57:04.952Z,101117.91
2023-01-22T10:59:33.317Z,101120.34
2023-01-22T11:02:03.162Z,101127.28
2023-01-22T11:04:34.372Z,101122.69
2023-01-22T11:07:08.403Z,101123.75
2023-01-22T11:09:38.694Z,101128.53
2023-01-22T11:12:13.439Z,101115.25
2023-01-22T11:14:41.454Z,101120.63
2023-01-22T11:17:19.135Z,101119.16
2023-01-22T11:19:56.786Z,101122.59
2023-01-22T11:22:29.801Z,101113.94
2023-01-22T11:24:57.717Z,101114.59
2023-01-22T11:27:54.299Z,101110.41
2023-01-22T11:30:49.538Z,101113.50
2023-01-22T11:33:33.716Z,101114.78
2023-01-22T11:36:10.867Z,101113.19
2023-01-22T11:38:49.130Z,101116.22
2023-01-22T11:41:27.854Z,101119.50
2023-01-22T11:44:21.676Z,101127.41
2023-01-22T11:47:02.739Z,101124.72
2023-01-22T11:49:41.633Z,101124.13
2023-01-22T11:52:23.492Z,101123.75
2023-01-22T11:55:04.448Z,101110.84
2023-01-22T11:57:37.819Z,101122.44
2023-01-22T12:00:39.783Z,101125.75
2023-01-22T12:03:23.773Z,101125.47
2023-01-22T12:06:06.640Z,101124.34
2023-01-22T12:08:47.749Z,101125.81
2023-01-22T12:11:34.866Z,101120.38
2023-01-22T12:14:33.524Z,101101.22
2023-01-22T12:17:12.372Z,101120.63
2023-01-22T12:20:14.815Z,101122.44
2023-01-22T12:22:48.548Z,101127.47
2023-01-22T12:25:27.558Z,101120.38
2023-01-22T12:28:00.878Z,101127.47
2023-01-22T12:30:34.307Z,101132.78
2023-01-22T12:33:05.235Z,101134.94
2023-01-22T12:35:33.661Z,101139.00
2023-01-22T12:38:12.253Z,101142.16
2023-01-22T12:41:07.398Z,101144.63
2023-01-22T12:43:39.015Z,101135.66
2023-01-22T12:46:19.053Z,101146.47
2023-01-22T12:49:03.149Z,101149.72
2023-01-22T12:51:38.719Z,101153.91
2023-01-22T12:54:23.592Z,101157.03
2023-01-22T12:56:56.624Z,101162.03
2023-01-22T12:59:32.942Z,101165.91
2023-01-22T13:02:03.274Z,101155.94
2023-01-22T13:04:32.527Z,101160.34
2023-01-22T13:07:21.477Z,101165.06
2023-01-22T13:09:49.670Z,101166.34
2023-01-22T13:12:28.611Z,101168.00
2023-01-22T13:14:57.717Z,101165.16
2023-01-22T13:17:30.496Z,101168.19
2023-01-22T13:19:59.438Z,101173.56
2023-01-22T13:22:28.782Z,101176.88
2023-01-22T13:24:58.500Z,101178.78
2023-01-22T13:27:30.680Z,101183.31
2023-01-22T13:30:08.929Z,101180.47
2023-01-22T13:32:37.226Z,101182.13
2023-01-22T13:35:06.613Z,101185.22
2023-01-22T13:37:35.898Z,101186.72
2023-01-22T13:40:13.326Z,101191.56
2023-01-22T13:42:46.339Z,101195.69
2023-01-22T13:45:20.221Z,101189.72
2023-01-22T13:47:48.177Z,101204.59
2023-01-22T13:50:21.635Z,101204.41
2023-01-22T13:52:50.441Z,101209.06
2023-01-22T13:55:20.368Z,101211.09
2023-01-22T13:57:51.815Z,101206.81
2023-01-22T14:00:25.481Z,101201.47
2023-01-22T14:02:54.027Z,101205.34
2023-01-22T14:05:24.414Z,101202.22
2023-01-22T14:07:53.087Z,101212.56
2023-01-22T14:10:23.794Z,101206.81
2023-01-22T14:13:04.798Z,101204.69
2023-01-22T14:15:33.659Z,101215.47
2023-01-22T14:18:10.780Z,101222.50
2023-01-22T14:20:40.394Z,101222.88
2023-01-22T14:23:08.803Z,101225.91
2023-01-22T14:25:38.377Z,101226.53
2023-01-22T14:28:08.570Z,101233.75
2023-01-22T14:30:36.537Z,101232.25
2023-01-22T14:33:05.235Z,101233.25
2023-01-22T14:35:33.166Z,101235.75
2023-01-22T14:38:01.251Z,101233.44
2023-01-22T14:40:30.338Z,101235.56
2023-01-22T14:43:00.614Z,101235.75
2023-01-22T14:45:30.251Z,101235.75
2023-01-22T14:47:58.197Z,101240.78
2023-01-22T14:50:26.098Z,101244.25
2023-01-22T14:52:54.357Z,101234.28
2023-01-22T14:55:22.305Z,101235.75
2023-01-22T14:57:50.412Z,101245.56
2023-01-22T15:00:20.374Z,101235.50
2023-01-22T15:02:49.800Z,101246.44
2023-01-22T15:05:17.986Z,101242.38
2023-01-22T15:07:45.883Z,101244.34
2023-01-22T15:10:13.812Z,101253.56
2023-01-22T15:12:41.700Z,101257.47
2023-01-22T15:15:10.506Z,101253.50
2023-01-22T15:17:38.410Z,101255.34
2023-01-22T15:20:08.891Z,101259.47
2023-01-22T15:22:36.770Z,101252.44
2023-01-22T15:25:05.115Z,101268.94
2023-01-22T15:27:33.013Z,101277.41
2023-01-22T15:30:04.050Z,101273.03
2023-01-22T15:32:32.217Z,101263.91
2023-01-22T15:35:00.234Z,101277.88
2023-01-22T15:37:29.515Z,101278.63
2023-01-22T15:39:57.461Z,101281.19
2023-01-22T15:42:25.419Z,101282.25
2023-01-22T15:44:53.301Z,101286.53
2023-01-22T15:47:21.175Z,101286.53
2023-01-22T15:49:49.082Z,101285.53
2023-01-22T15:52:16.980Z,101291.09
2023-01-22T15:54:47.194Z,101288.66
2023-01-22T15:57:15.538Z,101290.22
2023-01-22T15:59:43.446Z,101303.38
2023-01-22T16:02:12.126Z,101305.56
2023-01-22T16:04:40.078Z,101308.31
2023-01-22T16:07:07.990Z,101310.75
2023-01-22T16:09:35.968Z,101306.91
2023-01-22T16:12:05.930Z,101307.91
2023-01-22T16:14:33.819Z,101314.28
2023-01-22T16:17:01.780Z,101317.44
2023-01-22T16:19:29.747Z,101322.56
2023-01-22T16:21:57.642Z,101320.97
2023-01-22T16:24:25.559Z,101316.13
2023-01-22T16:26:53.452Z,101328.06
2023-01-22T16:29:22.817Z,101320.25
2023-01-22T16:31:50.808Z,101320.41
2023-01-22T16:34:21.871Z,101318.00
2023-01-22T16:36:50.435Z,101325.75
2023-01-22T16:39:20.016Z,101326.31
2023-01-22T16:41:49.495Z,101324.72
2023-01-22T16:44:19.151Z,101323.72
2023-01-22T16:46:52.415Z,101332.44
2023-01-22T16:49:22.162Z,101333.97
2023-01-22T16:51:52.149Z,101340.03
2023-01-22T16:54:22.686Z,101347.59
2023-01-22T16:56:51.376Z,101341.56
2023-01-22T16:59:19.321Z,101345.44
2023-01-22T17:01:48.826Z,101337.84
2023-01-22T17:04:17.208Z,101339.53
2023-01-22T17:06:47.104Z,101330.31
2023-01-22T17:09:17.547Z,101341.38
2023-01-22T17:11:47.151Z,101344.75
2023-01-22T17:14:18.499Z,101354.47
2023-01-22T17:16:46.456Z,101351.09
2023-01-22T17:19:16.075Z,101352.28
2023-01-22T17:21:44.639Z,101360.78
2023-01-22T17:24:13.545Z,101354.75
2023-01-22T17:26:42.593Z,101363.06
2023-01-22T17:29:11.122Z,101373.72
2023-01-22T17:31:39.197Z,101369.25
2023-01-22T17:34:10.936Z,101378.34
2023-01-22T17:36:41.066Z,101374.47
2023-01-22T17:39:12.086Z,101372.06
2023-01-22T17:41:39.979Z,101367.50
2023-01-22T17:44:07.914Z,101386.41
2023-01-22T17:46:35.986Z,101394.38
2023-01-22T17:49:04.762Z,101389.50
2023-01-22T17:51:34.512Z,101400.09
2023-01-22T17:54:06.137Z,101398.63
2023-01-22T17:56:36.984Z,101381.22
2023-01-22T17:59:07.098Z,101397.28
2023-01-22T18:01:36.874Z,101400.81
2023-01-22T18:04:07.657Z,101406.94
2023-01-22T18:06:36.501Z,101405.72
2023-01-22T18:09:06.911Z,101403.75
2023-01-22T18:11:36.193Z,101405.25
2023-01-22T18:14:05.920Z,101411.69
2023-01-22T18:16:37.169Z,101410.56
2023-01-22T18:19:07.290Z,101411.91
2023-01-22T18:21:36.205Z,101415.59
2023-01-22T18:24:08.343Z,101420.00
2023-01-22T18:26:37.413Z,101428.81
2023-01-22T18:29:06.245Z,101425.00
2023-01-22T18:31:35.051Z,101429.16
2023-01-22T18:34:05.215Z,101432.66
2023-01-22T18:36:35.685Z,101443.91
2023-01-22T18:39:07.453Z,101439.56
2023-01-22T18:41:36.443Z,101440.41
2023-01-22T18:44:04.997Z,101443.00
2023-01-22T18:46:36.951Z,101443.63
2023-01-22T18:49:06.951Z,101453.31
2023-01-22T18:51:35.508Z,101443.97
2023-01-22T18:54:06.072Z,101462.09
2023-01-22T18:56:35.738Z,101470.41
2023-01-22T18:59:03.626Z,101481.13
2023-01-22T19:01:33.549Z,101470.00
2023-01-22T19:04:03.361Z,101481.25
2023-01-22T19:06:33.491Z,101477.41
2023-01-22T19:09:04.991Z,101478.31
2023-01-22T19:11:36.943Z,101496.78
2023-01-22T19:14:07.302Z,101507.38
2023-01-22T19:16:35.274Z,101515.13
2023-01-22T19:19:07.870Z,101516.03
2023-01-22T19:21:35.831Z,101516.94
2023-01-22T19:24:03.962Z,101523.94
2023-01-22T19:26:33.778Z,101523.41
2023-01-22T19:29:07.162Z,101520.75
2023-01-22T19:31:37.192Z,101518.34
2023-01-22T19:34:06.257Z,101520.34
2023-01-22T19:36:38.248Z,101529.88
2023-01-22T19:39:09.522Z,101526.88
2023-01-22T19:41:38.106Z,101520.34
2023-01-22T19:44:07.516Z,101523.66
2023-01-22T19:46:35.584Z,101532.13
2023-01-22T19:49:05.372Z,101529.53
2023-01-22T19:51:33.313Z,101536.13
2023-01-22T19:54:02.505Z,101526.81
2023-01-22T19:56:33.779Z,101533.63
2023-01-22T19:59:05.967Z,101524.47
2023-01-22T20:01:36.847Z,101533.47
2023-01-22T20:04:08.927Z,101537.63
2023-01-22T20:06:37.107Z,101525.81
2023-01-22T20:09:05.534Z,101528.84
2023-01-22T20:11:33.911Z,101544.75
2023-01-22T20:14:01.995Z,101541.69
2023-01-22T20:16:31.179Z,101539.56
2023-01-22T20:19:00.598Z,101541.31
2023-01-22T20:21:30.020Z,101540.53
2023-01-22T20:23:58.023Z,101551.16
2023-01-22T20:26:26.018Z,101550.31
2023-01-22T20:28:53.946Z,101560.16
2023-01-22T20:31:24.586Z,101553.63
2023-01-22T20:33:54.726Z,101558.72
2023-01-22T20:36:29.218Z,101558.22
2023-01-22T20:38:57.856Z,101560.75
2023-01-22T20:41:28.555Z,101566.06
2023-01-22T20:43:56.572Z,101572.38
2023-01-22T20:46:26.016Z,101559.78
2023-01-22T20:48:54.725Z,101564.72
2023-01-22T20:51:26.390Z,101560.81
2023-01-22T20:53:55.730Z,101549.66
2023-01-22T20:56:28.420Z,101561.31
2023-01-22T20:58:57.328Z,101566.91
2023-01-22T21:01:25.602Z,101561.78
2023-01-22T21:03:54.883Z,101565.34
2023-01-22T21:06:24.969Z,101569.63
2023-01-22T21:08:56.171Z,101569.81
2023-01-22T21:11:25.124Z,101578.84
2023-01-22T21:13:54.265Z,101584.25
2023-01-22T21:16:26.407Z,101575.31
2023-01-22T21:18:55.678Z,101578.84
2023-01-22T21:21:25.634Z,101586.16
2023-01-22T21:23:55.349Z,101587.94
2023-01-22T21:26:26.860Z,101592.50
2023-01-22T21:28:56.281Z,101602.34
2023-01-22T21:31:24.988Z,101594.50
2023-01-22T21:34:02.469Z,101594.56
2023-01-22T21:36:32.678Z,101599.81
2023-01-22T21:39:01.149Z,101602.72
2023-01-22T21:41:29.724Z,101602.88
2023-01-22T21:44:15.270Z,101611.16
2023-01-22T21:46:45.597Z,101612.13
2023-01-22T21:49:19.994Z,101611.03
2023-01-22T21:51:51.192Z,101619.84
2023-01-22T21:54:22.278Z,101613.56
2023-01-22T21:56:50.861Z,101630.22
2023-01-22T21:59:19.387Z,101625.16
2023-01-22T22:01:50.294Z,101629.97
2023-01-22T22:04:18.920Z,101631.78
2023-01-22T22:06:46.963Z,101625.59
2023-01-22T22:09:21.945Z,101630.41
2023-01-22T22:11:52.394Z,101618.63
2023-01-22T22:14:21.384Z,101621.75
2023-01-22T22:16:49.573Z,101617.03
2023-01-22T22:19:18.957Z,101618.00
2023-01-22T22:21:47.399Z,101613.06
2023-01-22T22:24:16.685Z,101605.41
2023-01-22T22:26:44.835Z,101614.41
2023-01-22T22:29:12.720Z,101610.91
2023-01-22T22:31:40.647Z,101619.56
2023-01-22T22:34:08.743Z,101620.66
2023-01-22T22:36:36.774Z,101620.53
2023-01-22T22:39:06.544Z,101617.22
2023-01-22T22:41:38.565Z,101622.53
2023-01-22T22:44:07.445Z,101623.91
2023-01-22T22:46:37.814Z,101628.25
2023-01-22T22:49:05.969Z,101627.81
2023-01-22T22:51:35.830Z,101634.28
2023-01-22T22:54:05.717Z,101634.88
2023-01-22T22:56:35.089Z,101638.06
2023-01-22T22:59:03.347Z,101644.72
2023-01-22T23:01:33.230Z,101653.72
2023-01-22T23:04:01.683Z,101655.16
2023-01-22T23:06:31.717Z,101659.53
2023-01-22T23:09:00.521Z,101659.59
2023-01-22T23:11:31.094Z,101660.91
2023-01-22T23:14:02.774Z,101664.91
2023-01-22T23:16:32.432Z,101659.53
2023-01-22T23:19:02.135Z,101652.63
2023-01-22T23:21:30.892Z,101669.59
2023-01-22T23:23:58.790Z,101665.31
2023-01-22T23:26:30.034Z,101660.06
2023-01-22T23:29:00.627Z,101668.75
2023-01-22T23:31:31.913Z,101664.53
2023-01-22T23:34:02.539Z,101669.06
2023-01-22T23:36:32.708Z,101670.25
2023-01-22T23:39:00.651Z,101673.84
2023-01-22T23:41:29.143Z,101681.34
2023-01-22T23:43:57.146Z,101683.41
2023-01-22T23:46:29.206Z,101688.00
2023-01-22T23:49:00.022Z,101693.94
2023-01-22T23:51:28.651Z,101691.47
2023-01-22T23:53:56.701Z,101700.25
2023-01-22T23:56:27.830Z,101703.53
2023-01-22T23:58:56.800Z,101708.50
